Time;durP1;ratioP1;P1;durP2;ratioP2;P2;SDS_P1;SDS_P2;PMS_P1;PMS_P2;Temp;Humidity;BMP_temperature;BMP_pressure;BME280_temperature;BME280_humidity;BME280_pressure;Samples;Min_cycle;Max_cycle;Signal;HPM_P1;HPM_P2
2022/05/14 00:01:18;;;;;;;11.45;4.57;;;14.30;90.80;;;;;;4996128;28;101041;-70
2022/05/14 00:03:47;;;;;;;8.82;3.78;;;14.30;91.00;;;;;;4996733;28;97804;-70
2022/05/14 00:06:21;;;;;;;10.15;3.95;;;14.30;91.00;;;;;;5014321;28;98630;-70
2022/05/14 00:08:48;;;;;;;;;;;14.30;90.90;;;;;;5014215;28;99244;-70
2022/05/14 00:14:03;;;;;;;12.90;3.90;;;14.20;91.00;;;;;;5014776;28;98466;-70
2022/05/14 00:16:32;;;;;;;9.65;3.75;;;14.20;91.00;;;;;;5013720;28;98604;-70
2022/05/14 00:19:00;;;;;;;12.30;4.88;;;14.20;91.00;;;;;;5013272;28;99219;-70
2022/05/14 00:21:27;;;;;;;9.15;4.40;;;14.20;91.10;;;;;;4996197;28;99077;-70
2022/05/14 00:23:55;;;;;;;11.40;3.90;;;14.20;91.10;;;;;;4996303;28;98570;-70
2022/05/14 00:26:21;;;;;;;8.35;4.03;;;14.10;91.10;;;;;;5012611;28;98569;-70
2022/05/14 00:28:48;;;;;;;8.63;4.13;;;14.10;91.10;;;;;;5013842;28;98741;-70
2022/05/14 00:31:16;;;;;;;7.85;4.00;;;14.10;91.30;;;;;;5012248;28;100868;-70
2022/05/14 00:33:45;;;;;;;7.75;4.28;;;14.00;91.30;;;;;;5013735;28;98495;-70
2022/05/14 00:36:12;;;;;;;9.23;3.55;;;14.00;91.30;;;;;;5013483;28;99382;-70
2022/05/14 00:38:39;;;;;;;11.77;4.20;;;14.00;91.30;;;;;;5011847;28;100246;-70
2022/05/14 00:41:08;;;;;;;8.90;4.70;;;14.00;91.40;;;;;;4995437;28;101828;-70
2022/05/14 00:43:48;;;;;;;12.35;4.15;;;14.00;91.40;;;;;;5011663;28;98710;-70
2022/05/14 00:46:26;;;;;;;11.60;3.50;;;14.10;91.50;;;;;;5012390;28;98542;-70
2022/05/14 00:48:57;;;;;;;12.85;4.30;;;14.00;91.50;;;;;;4995195;28;101880;-70
2022/05/14 00:51:29;;;;;;;9.73;3.80;;;14.00;91.60;;;;;;5010992;28;102009;-70
2022/05/14 00:54:06;;;;;;;12.07;4.03;;;14.00;91.60;;;;;;5013591;28;97814;-70
2022/05/14 00:56:39;;;;;;;8.45;3.00;;;14.00;91.60;;;;;;4995248;28;98655;-69
2022/05/14 00:59:14;;;;;;;9.45;3.67;;;14.10;91.60;;;;;;5011453;28;101128;-69
2022/05/14 01:01:42;;;;;;;8.70;3.78;;;14.00;91.60;;;;;;5011309;28;100211;-70
2022/05/14 01:04:11;;;;;;;7.50;3.78;;;14.00;91.50;;;;;;4995514;28;98514;-70
2022/05/14 01:06:43;;;;;;;8.43;3.45;;;14.00;91.40;;;;;;4995133;28;99337;-70
2022/05/14 01:09:10;;;;;;;12.27;4.78;;;14.10;91.50;;;;;;5011659;28;101973;-70
2022/05/14 01:11:39;;;;;;;10.15;4.32;;;14.00;91.50;;;;;;4994775;28;101465;-70
2022/05/14 01:14:07;;;;;;;9.27;3.60;;;14.10;91.60;;;;;;5011976;28;98576;-70
2022/05/14 01:16:36;;;;;;;9.05;3.78;;;14.10;91.50;;;;;;5010974;28;98644;-69
2022/05/14 01:19:05;;;;;;;8.32;3.90;;;14.10;91.50;;;;;;5011024;28;100876;-70
2022/05/14 01:21:48;;;;;;;10.10;3.72;;;14.20;91.40;;;;;;4993414;28;100565;-69
2022/05/14 01:27:27;;;;;;;10.45;4.05;;;14.30;91.30;;;;;;5009867;28;99262;-70
2022/05/14 01:29:54;;;;;;;6.93;3.70;;;14.30;91.40;;;;;;5009297;28;102018;-70
2022/05/14 01:32:21;;;;;;;13.95;4.07;;;14.30;91.40;;;;;;4976915;28;101577;-70
2022/05/14 01:34:48;;;;;;;13.70;4.38;;;14.30;91.30;;;;;;5009882;28;98615;-70
2022/05/14 01:37:18;;;;;;;10.80;4.03;;;14.30;91.30;;;;;;4993741;28;98584;-70
2022/05/14 01:39:45;;;;;;;8.05;4.00;;;14.40;91.30;;;;;;5009357;28;102098;-70
2022/05/14 01:42:12;;;;;;;8.85;3.90;;;14.40;91.30;;;;;;4993203;28;101498;-69
2022/05/14 01:44:40;;;;;;;9.82;4.13;;;14.40;91.20;;;;;;5011647;28;97841;-70
2022/05/14 01:47:07;;;;;;;10.75;3.85;;;14.40;91.20;;;;;;5009955;28;98602;-70
2022/05/14 01:49:35;;;;;;;11.45;4.32;;;14.40;91.30;;;;;;5009586;28;101748;-70
2022/05/14 01:52:02;;;;;;;8.25;4.20;;;14.40;91.30;;;;;;4992375;28;101373;-70
2022/05/14 01:54:29;;;;;;;12.38;4.57;;;14.40;91.40;;;;;;5009825;28;98610;-70
2022/05/14 01:56:56;;;;;;;10.15;4.20;;;14.30;91.50;;;;;;4993071;28;98577;-70
2022/05/14 01:59:26;;;;;;;16.17;4.95;;;14.30;91.60;;;;;;4993092;28;101609;-70
2022/05/14 02:01:54;;;;;;;13.00;4.95;;;14.20;91.80;;;;;;5009203;28;101632;-70
2022/05/14 02:04:21;;;;;;;10.43;4.68;;;14.20;91.90;;;;;;5008911;28;98616;-70
2022/05/14 02:06:48;;;;;;;13.57;4.57;;;14.10;92.00;;;;;;4993081;28;98517;-70
2022/05/14 02:09:15;;;;;;;11.90;5.07;;;14.10;92.10;;;;;;4993172;28;98558;-70
2022/05/14 02:11:48;;;;;;;12.93;5.45;;;14.10;92.20;;;;;;5009289;28;100767;-69
2022/05/14 02:14:36;;;;;;;13.02;5.00;;;13.90;92.30;;;;;;4995921;28;98545;-70
2022/05/14 02:17:03;;;;;;;13.77;4.88;;;13.90;92.40;;;;;;5009014;28;99492;-69
2022/05/14 02:19:32;;;;;;;13.73;5.30;;;13.80;92.50;;;;;;4964435;28;1163115;-69
2022/05/14 02:21:59;;;;;;;17.13;5.25;;;13.80;92.70;;;;;;4990568;28;101829;-70
2022/05/14 02:24:26;;;;;;;16.80;5.70;;;13.80;92.80;;;;;;5007474;28;98587;-70
2022/05/14 02:26:53;;;;;;;13.63;4.93;;;13.70;92.90;;;;;;4990864;28;99031;-69
2022/05/14 02:29:20;;;;;;;13.05;5.15;;;13.70;93.00;;;;;;5007202;28;101605;-70
2022/05/14 02:31:47;;;;;;;15.90;5.57;;;13.70;93.10;;;;;;4991971;28;99057;-70
2022/05/14 02:34:14;;;;;;;14.77;5.53;;;13.60;93.20;;;;;;5007845;28;97869;-70
2022/05/14 02:36:41;;;;;;;12.20;5.63;;;13.60;93.30;;;;;;4990933;28;98953;-70
2022/05/14 02:39:08;;;;;;;15.57;5.13;;;13.60;93.40;;;;;;4990181;28;101827;-69
2022/05/14 02:41:36;;;;;;;12.38;5.47;;;13.50;93.40;;;;;;5006641;28;100904;-69
2022/05/14 02:44:03;;;;;;;12.63;5.10;;;13.50;93.50;;;;;;4990734;28;98991;-69
2022/05/14 02:46:30;;;;;;;15.07;5.00;;;13.50;93.50;;;;;;5007308;28;98596;-69
2022/05/14 02:48:57;;;;;;;10.52;5.82;;;13.40;93.50;;;;;;4990093;28;101841;-70
2022/05/14 02:51:24;;;;;;;17.92;5.50;;;13.40;93.60;;;;;;4990323;28;100884;-69
2022/05/14 02:53:52;;;;;;;18.13;5.45;;;13.40;93.70;;;;;;5007242;28;98900;-70
2022/05/14 02:56:19;;;;;;;11.23;5.70;;;13.30;93.80;;;;;;4990464;28;98539;-69
2022/05/14 03:01:31;;;;;;;16.70;6.40;;;13.20;94.00;;;;;;4999700;28;98569;-69
2022/05/14 03:03:58;;;;;;;13.27;5.65;;;13.20;94.30;;;;;;5007023;28;98582;-69
2022/05/14 03:06:26;;;;;;;14.45;5.55;;;13.20;94.40;;;;;;4990101;28;99550;-70
2022/05/14 03:08:54;;;;;;;14.80;6.47;;;13.20;94.20;;;;;;4991362;28;99369;-69
2022/05/14 03:11:21;;;;;;;16.27;5.85;;;13.10;94.30;;;;;;5006660;28;101618;-69
2022/05/14 03:13:51;;;;;;;11.18;5.85;;;13.10;94.40;;;;;;5007075;28;99327;-69
2022/05/14 03:16:20;;;;;;;12.55;6.32;;;13.10;94.50;;;;;;4993402;28;98522;-69
2022/05/14 03:18:48;;;;;;;19.40;6.45;;;13.00;94.60;;;;;;4994232;28;100369;-70
2022/05/14 03:21:15;;;;;;;20.27;6.35;;;13.00;94.70;;;;;;4996978;28;101416;-70
2022/05/14 03:23:42;;;;;;;21.27;7.10;;;13.00;94.80;;;;;;5013999;28;97783;-70
2022/05/14 03:26:09;;;;;;;16.27;6.80;;;13.00;94.90;;;;;;4996707;28;98616;-69
2022/05/14 03:28:37;;;;;;;19.63;7.10;;;12.90;95.00;;;;;;4996497;28;101675;-70
2022/05/14 03:31:04;;;;;;;16.45;6.38;;;12.90;95.10;;;;;;5012504;28;101672;-70
2022/05/14 03:33:32;;;;;;;17.45;6.18;;;12.90;95.20;;;;;;4997303;28;98493;-70
2022/05/14 03:35:59;;;;;;;15.88;6.53;;;12.90;95.30;;;;;;4980257;28;98616;-70
2022/05/14 03:38:26;;;;;;;18.70;6.80;;;12.80;95.30;;;;;;5014515;28;99047;-69
2022/05/14 03:40:53;;;;;;;13.55;6.40;;;12.80;95.40;;;;;;4995983;28;101617;-70
2022/05/14 03:43:20;;;;;;;15.15;6.00;;;12.80;95.60;;;;;;4980396;28;98611;-69
2022/05/14 03:45:47;;;;;;;15.80;6.97;;;12.70;95.60;;;;;;5014773;28;98947;-69
2022/05/14 03:48:14;;;;;;;15.10;6.55;;;12.70;95.80;;;;;;4996417;28;100852;-70
2022/05/14 03:50:41;;;;;;;18.30;7.10;;;12.70;95.80;;;;;;4996234;28;100558;-69
2022/05/14 03:53:08;;;;;;;12.43;6.28;;;12.70;95.90;;;;;;5013179;28;98628;-69
2022/05/14 03:55:36;;;;;;;15.50;6.60;;;12.70;95.90;;;;;;4996077;28;99779;-69
2022/05/14 03:58:03;;;;;;;19.27;6.28;;;12.80;96.00;;;;;;5012343;28;101719;-69
2022/05/14 04:00:30;;;;;;;15.68;5.93;;;12.70;96.00;;;;;;4995965;28;100052;-72
2022/05/14 04:02:58;;;;;;;19.77;6.07;;;12.70;96.10;;;;;;5013090;28;98949;-72
2022/05/14 04:05:25;;;;;;;13.43;6.30;;;12.70;96.20;;;;;;4996440;28;98598;-72
2022/05/14 04:07:52;;;;;;;10.73;6.65;;;12.70;96.40;;;;;;5012715;28;101591;-72
2022/05/14 04:10:19;;;;;;;20.38;7.30;;;12.70;96.50;;;;;;4995729;28;101271;-72
2022/05/14 04:12:46;;;;;;;21.75;7.35;;;12.80;96.60;;;;;;4996869;28;98285;-72
2022/05/14 04:15:15;;;;;;;14.23;6.70;;;12.80;96.80;;;;;;4995917;28;98565;-72
2022/05/14 04:17:42;;;;;;;18.50;6.82;;;12.80;96.90;;;;;;5012433;28;101733;-72
2022/05/14 04:20:10;;;;;;;23.05;7.68;;;12.80;97.10;;;;;;4994505;28;101543;-72
2022/05/14 04:22:37;;;;;;;17.63;7.28;;;12.90;97.30;;;;;;5012461;28;99002;-72
2022/05/14 04:25:05;;;;;;;16.38;7.00;;;13.00;97.30;;;;;;5012549;28;99042;-72
2022/05/14 04:27:33;;;;;;;23.23;7.95;;;13.00;97.10;;;;;;4978026;28;101841;-69
2022/05/14 04:30:00;;;;;;;21.20;7.10;;;13.10;97.00;;;;;;5011914;28;101513;-69
2022/05/14 04:32:28;;;;;;;22.13;8.07;;;13.20;97.00;;;;;;5012801;28;98569;-69
2022/05/14 04:34:56;;;;;;;18.30;7.35;;;13.30;96.90;;;;;;4995894;28;98669;-69
2022/05/14 04:37:24;;;;;;;22.92;7.65;;;13.40;96.90;;;;;;4995542;28;101534;-70
2022/05/14 04:39:52;;;;;;;20.85;8.00;;;13.40;96.90;;;;;;4995275;28;99334;-70
2022/05/14 04:42:19;;;;;;;17.95;7.70;;;13.50;96.90;;;;;;4995595;28;98625;-69
2022/05/14 04:44:46;;;;;;;25.13;8.13;;;13.60;96.80;;;;;;4995694;28;99316;-70
2022/05/14 04:47:17;;;;;;;21.83;8.77;;;13.70;96.60;;;;;;4995131;28;101933;-70
2022/05/14 04:49:46;;;;;;;27.58;9.10;;;13.80;96.50;;;;;;4963396;28;101845;-70
2022/05/14 04:52:16;;;;;;;15.35;8.52;;;13.90;96.40;;;;;;4995519;28;98494;-70
2022/05/14 04:54:43;;;;;;;22.45;8.60;;;14.00;96.20;;;;;;4995528;28;98659;-69
2022/05/14 04:57:10;;;;;;;23.42;8.00;;;14.00;96.10;;;;;;4994857;28;102155;-70
2022/05/14 04:59:37;;;;;;;23.10;7.95;;;14.00;96.10;;;;;;5013213;28;98971;-70
2022/05/14 05:04:54;;;;;;;26.92;8.90;;;14.00;95.90;;;;;;4995143;28;98799;-70
2022/05/14 05:07:22;;;;;;;21.42;8.63;;;14.00;95.90;;;;;;4994760;28;101233;-69
2022/05/14 05:09:49;;;;;;;20.90;8.82;;;14.00;96.00;;;;;;4994712;28;101417;-70
2022/05/14 05:12:17;;;;;;;22.20;8.48;;;14.00;96.10;;;;;;4995622;28;98507;-70
2022/05/14 05:14:45;;;;;;;21.42;9.13;;;14.00;96.20;;;;;;5011770;28;98628;-70
2022/05/14 05:17:12;;;;;;;24.30;8.35;;;14.00;96.40;;;;;;5012626;28;99236;-70
2022/05/14 05:19:39;;;;;;;18.70;8.75;;;14.10;96.40;;;;;;5011159;28;99412;-70
2022/05/14 05:22:06;;;;;;;28.60;9.25;;;14.20;96.30;;;;;;4995158;28;98587;-70
2022/05/14 05:24:33;;;;;;;18.25;8.23;;;14.40;96.10;;;;;;4995124;28;98596;-70
2022/05/14 05:27:00;;;;;;;20.00;9.20;;;14.50;95.80;;;;;;4994943;28;101152;-70
2022/05/14 05:29:27;;;;;;;21.00;8.50;;;14.70;95.50;;;;;;4994663;28;98615;-70
2022/05/14 05:31:54;;;;;;;23.75;8.25;;;14.80;95.30;;;;;;5013155;28;98434;-70
2022/05/14 05:34:21;;;;;;;18.33;9.05;;;14.80;95.10;;;;;;5012591;28;99213;-70
2022/05/14 05:36:48;;;;;;;20.45;9.35;;;15.00;95.00;;;;;;4994545;28;101741;-70
2022/05/14 05:39:15;;;;;;;32.22;9.52;;;15.00;94.80;;;;;;5012051;28;99082;-70
2022/05/14 05:41:41;;;;;;;25.35;9.85;;;15.10;94.70;;;;;;5012928;28;98484;-70
2022/05/14 05:44:08;;;;;;;20.63;8.45;;;15.20;94.80;;;;;;4994665;28;98598;-70
2022/05/14 05:46:35;;;;;;;27.00;8.55;;;15.40;94.40;;;;;;5011087;28;102009;-70
2022/05/14 05:49:04;;;;;;;20.95;10.55;;;15.50;94.10;;;;;;5012423;28;99120;-70
2022/05/14 05:51:32;;;;;;;26.10;9.68;;;15.60;93.90;;;;;;5011146;28;98255;-70
2022/05/14 05:56:51;;;;;;;23.10;9.20;;;15.90;93.80;;;;;;5012320;28;99365;-70
2022/05/14 05:59:20;;;;;;;24.13;10.45;;;16.10;93.30;;;;;;5010543;28;99332;-70
2022/05/14 06:01:47;;;;;;;21.95;8.93;;;16.30;93.00;;;;;;5010939;28;98641;-70
2022/05/14 06:04:14;;;;;;;22.13;7.70;;;16.50;92.80;;;;;;4994433;28;98546;-70
2022/05/14 06:06:42;;;;;;;25.00;9.38;;;16.70;92.60;;;;;;5012196;28;99219;-70
2022/05/14 06:09:16;;;;;;;17.95;8.13;;;16.80;92.40;;;;;;4994245;28;98933;-70
2022/05/14 06:11:44;;;;;;;22.23;8.52;;;17.10;92.10;;;;;;5011172;28;98905;-70
2022/05/14 06:14:12;;;;;;;17.98;7.18;;;17.20;91.80;;;;;;5012401;28;98702;-70
2022/05/14 06:16:40;;;;;;;20.02;7.45;;;17.40;91.40;;;;;;5010940;28;101690;-70
2022/05/14 06:19:07;;;;;;;20.52;7.35;;;17.60;91.00;;;;;;5011600;28;98497;-70
2022/05/14 06:21:36;;;;;;;21.10;6.82;;;17.80;90.70;;;;;;5012070;28;99071;-70
2022/05/14 06:24:05;;;;;;;23.77;6.75;;;17.90;90.20;;;;;;5011620;28;99415;-70
2022/05/14 06:26:31;;;;;;;17.75;6.30;;;18.00;89.90;;;;;;4993530;28;101725;-70
2022/05/14 06:28:59;;;;;;;23.15;6.55;;;18.00;89.20;;;;;;5011752;28;99084;-70
2022/05/14 06:31:27;;;;;;;20.05;7.60;;;18.10;88.60;;;;;;4994257;28;98542;-70
2022/05/14 06:33:54;;;;;;;22.00;6.35;;;18.10;88.20;;;;;;5010475;28;98589;-70
2022/05/14 06:36:21;;;;;;;17.50;6.85;;;18.20;88.10;;;;;;4993356;28;104166;-70
2022/05/14 06:38:48;;;;;;;23.42;7.55;;;18.30;87.70;;;;;;5011777;28;99169;-71
2022/05/14 06:41:15;;;;;;;16.70;7.30;;;18.30;87.30;;;;;;4978048;28;97738;-70
2022/05/14 06:43:42;;;;;;;21.48;6.22;;;18.40;87.00;;;;;;4993793;28;98566;-70
2022/05/14 06:46:09;;;;;;;15.90;6.22;;;18.50;86.50;;;;;;5011538;28;99392;-70
2022/05/14 06:48:36;;;;;;;18.17;6.18;;;18.50;86.20;;;;;;5010933;28;99285;-70
2022/05/14 06:51:10;;;;;;;20.58;6.65;;;18.50;85.60;;;;;;5014124;28;98411;-70
2022/05/14 06:53:39;;;;;;;19.25;6.25;;;18.50;84.90;;;;;;4997037;28;98571;-70
2022/05/14 06:56:08;;;;;;;23.48;5.63;;;18.50;85.10;;;;;;5014949;28;99743;-70
2022/05/14 06:58:40;;;;;;;16.98;6.07;;;18.50;84.90;;;;;;5014471;28;99142;-70
2022/05/14 07:01:08;;;;;;;16.75;5.28;;;18.50;84.50;;;;;;5015276;28;98416;-71
2022/05/14 07:06:43;;;;;;;18.67;5.88;;;18.50;83.00;;;;;;5015189;28;98724;-70
2022/05/14 07:09:24;;;;;;;18.60;5.15;;;18.50;82.90;;;;;;4999986;28;99062;-70
2022/05/14 07:11:58;;;;;;;17.75;4.75;;;18.50;83.10;;;;;;5013921;28;98572;-70
2022/05/14 07:14:26;;;;;;;18.42;4.85;;;18.40;82.80;;;;;;4997038;28;99331;-70
2022/05/14 07:16:54;;;;;;;15.23;4.85;;;18.40;81.40;;;;;;5014685;28;99455;-70
2022/05/14 07:19:21;;;;;;;17.50;5.75;;;18.30;81.40;;;;;;4981895;28;101691;-71
2022/05/14 07:22:05;;;;;;;18.83;5.70;;;18.30;82.50;;;;;;5013896;28;98601;-70
2022/05/14 07:24:43;;;;;;;15.63;4.45;;;18.40;81.00;;;;;;5014412;28;98553;-70
2022/05/14 07:27:11;;;;;;;16.77;4.90;;;18.40;80.80;;;;;;4996832;28;99850;-70
2022/05/14 07:29:40;;;;;;;14.70;6.05;;;18.40;80.60;;;;;;4996788;28;99015;-70
2022/05/14 07:32:12;;;;;;;16.33;4.10;;;18.50;81.30;;;;;;4997317;28;97700;-70
2022/05/14 07:34:40;;;;;;;18.65;4.88;;;18.50;80.50;;;;;;4996826;28;98489;-70
2022/05/14 07:37:19;;;;;;;14.48;4.75;;;18.50;79.70;;;;;;5014399;28;99289;-70
2022/05/14 07:39:58;;;;;;;16.00;4.88;;;18.50;78.50;;;;;;4996224;28;99709;-70
2022/05/14 07:43:06;;;;;;;17.83;4.07;;;18.50;79.20;;;;;;5014935;28;98464;-70
2022/05/14 07:45:41;;;;;;;16.45;4.68;;;18.50;78.30;;;;;;5012878;28;98556;-70
2022/05/14 07:48:16;;;;;;;15.90;5.03;;;18.50;79.00;;;;;;4996217;28;101759;-70
2022/05/14 07:50:44;;;;;;;16.08;4.85;;;18.50;79.70;;;;;;5012606;28;101701;-70
2022/05/14 07:53:12;;;;;;;14.20;4.32;;;18.70;79.20;;;;;;5014501;28;98484;-70
2022/05/14 07:55:39;;;;;;;15.70;5.20;;;18.70;77.40;;;;;;5014332;28;98530;-70
2022/05/14 07:58:07;;;;;;;15.52;5.18;;;18.90;77.30;;;;;;4996074;28;106596;-70
2022/05/14 08:00:34;;;;;;;13.65;5.63;;;19.40;77.10;;;;;;4979236;28;100793;-70
2022/05/14 08:03:02;;;;;;;13.88;4.90;;;20.20;75.60;;;;;;4996314;28;98596;-71
2022/05/14 08:05:29;;;;;;;14.55;5.07;;;21.00;72.60;;;;;;5013017;28;100054;-71
2022/05/14 08:07:57;;;;;;;12.98;5.07;;;21.80;70.90;;;;;;5013604;28;99499;-71
2022/05/14 08:10:25;;;;;;;12.13;4.55;;;22.60;68.80;;;;;;5013934;28;99019;-71
2022/05/14 08:12:56;;;;;;;13.52;4.80;;;23.60;66.10;;;;;;5012688;28;98603;-71
2022/05/14 08:15:25;;;;;;;15.07;5.22;;;24.70;63.10;;;;;;4996496;28;98690;-71
2022/05/14 08:17:53;;;;;;;11.80;4.80;;;25.60;59.20;;;;;;4995747;28;99399;-71
2022/05/14 08:20:21;;;;;;;12.07;5.50;;;26.50;57.10;;;;;;5012942;28;101747;-71
2022/05/14 08:25:34;;;;;;;11.60;5.20;;;28.10;50.30;;;;;;4995913;28;98587;-71
2022/05/14 08:28:01;;;;;;;12.05;5.78;;;28.20;47.60;;;;;;4995148;28;112658;-71
2022/05/14 08:30:31;;;;;;;13.30;5.80;;;28.60;46.10;;;;;;5011848;28;101475;-71
2022/05/14 08:32:58;;;;;;;13.65;5.70;;;29.00;45.50;;;;;;5013420;28;98439;-71
2022/05/14 08:35:28;;;;;;;12.50;5.45;;;29.40;44.20;;;;;;5013872;28;98480;-71
2022/05/14 08:37:55;;;;;;;13.38;6.32;;;29.70;43.40;;;;;;4995177;28;101797;-71
2022/05/14 08:40:28;;;;;;;12.95;5.57;;;29.40;43.30;;;;;;4995740;28;99051;-71
2022/05/14 08:42:59;;;;;;;16.80;6.15;;;29.30;43.10;;;;;;5014010;28;98961;-71
2022/05/14 08:45:28;;;;;;;12.15;6.25;;;29.10;43.30;;;;;;5012276;28;98692;-71
2022/05/14 08:48:17;;;;;;;10.30;4.20;;;29.10;43.00;;;;;;4995679;28;98616;-71
2022/05/14 08:51:10;;;;;;;11.90;5.63;;;29.00;42.60;;;;;;4996253;28;98599;-71
2022/05/14 08:53:40;;;;;;;15.32;7.18;;;29.10;42.60;;;;;;5013459;28;98567;-71
2022/05/14 08:56:13;;;;;;;13.30;5.18;;;29.10;42.60;;;;;;5013102;28;99280;-71
2022/05/14 08:59:01;;;;;;;14.25;5.30;;;29.30;42.00;;;;;;4994914;28;101806;-71
2022/05/14 09:01:34;;;;;;;16.67;5.57;;;28.90;42.00;;;;;;5013182;28;98968;-71
2022/05/14 09:04:01;;;;;;;16.63;6.15;;;28.30;43.00;;;;;;5013603;28;98587;-71
2022/05/14 09:06:29;;;;;;;12.07;4.60;;;27.30;44.30;;;;;;4995283;28;98599;-71
2022/05/14 09:08:56;;;;;;;16.35;5.30;;;26.90;45.70;;;;;;4994690;28;109630;-71
2022/05/14 09:11:29;;;;;;;11.50;4.70;;;26.30;47.00;;;;;;5013014;28;98986;-71
2022/05/14 09:14:00;;;;;;;15.10;5.60;;;25.80;47.50;;;;;;4978596;28;97791;-71
2022/05/14 09:16:33;;;;;;;14.50;5.75;;;25.50;48.70;;;;;;4995079;28;98581;-71
2022/05/14 09:19:13;;;;;;;14.80;5.75;;;25.50;49.20;;;;;;5011169;28;99427;-71
2022/05/14 09:21:54;;;;;;;16.20;5.25;;;25.80;49.90;;;;;;5012346;28;99220;-71
2022/05/14 09:24:25;;;;;;;12.15;5.57;;;26.00;49.20;;;;;;5013388;28;98497;-71
2022/05/14 09:26:56;;;;;;;13.80;4.78;;;26.00;47.60;;;;;;5011726;28;98567;-71
2022/05/14 09:29:41;;;;;;;18.50;5.13;;;26.10;47.80;;;;;;5012814;28;99044;-71
2022/05/14 09:32:16;;;;;;;15.25;4.90;;;26.00;47.70;;;;;;5012737;28;98977;-71
2022/05/14 09:34:43;;;;;;;12.13;4.22;;;25.80;48.10;;;;;;4994852;28;98531;-71
2022/05/14 09:37:21;;;;;;;16.35;5.30;;;25.30;48.10;;;;;;4995990;28;98621;-71
2022/05/14 09:40:01;;;;;;;;;;;25.20;49.60;;;;;;5013082;28;98413;-71
2022/05/14 09:43:29;;;;;;;14.18;4.75;;;24.90;49.60;;;;;;5012058;28;101095;-71
2022/05/14 09:46:02;;;;;;;13.98;5.68;;;24.80;50.00;;;;;;4957659;28;98555;-71
2022/05/14 09:48:49;;;;;;;16.63;5.18;;;24.50;50.60;;;;;;5011039;28;99329;-71
2022/05/14 09:51:30;;;;;;;14.85;5.45;;;24.50;50.40;;;;;;5011350;28;99236;-71
2022/05/14 09:54:27;;;;;;;14.30;5.18;;;24.70;52.00;;;;;;4994383;28;98883;-71
2022/05/14 09:57:06;;;;;;;18.55;6.15;;;24.40;51.30;;;;;;5011394;28;98548;-71
2022/05/14 09:59:47;;;;;;;17.42;4.03;;;24.10;53.00;;;;;;5013020;28;98407;-71
2022/05/14 10:02:36;;;;;;;13.82;4.38;;;23.80;52.00;;;;;;4994253;28;101823;-71
2022/05/14 10:05:27;;;;;;;15.15;5.25;;;23.70;53.00;;;;;;4993874;28;100296;-70
2022/05/14 10:08:04;;;;;;;13.07;5.15;;;23.70;52.90;;;;;;4965331;28;97903;-70
2022/05/14 10:10:49;;;;;;;16.00;4.93;;;23.70;52.90;;;;;;5010888;28;98557;-70
2022/05/14 10:13:34;;;;;;;15.15;5.82;;;23.90;53.40;;;;;;5012082;28;99137;-71
2022/05/14 10:16:10;;;;;;;14.07;4.10;;;23.90;53.30;;;;;;5010575;28;99289;-71
2022/05/14 10:19:09;;;;;;;15.63;5.07;;;23.90;52.50;;;;;;4994958;28;98472;-71
2022/05/14 10:21:48;;;;;;;14.55;5.30;;;23.90;52.90;;;;;;4975427;28;98720;-71
2022/05/14 10:27:39;;;;;;;14.98;5.07;;;23.30;54.00;;;;;;4997299;28;101990;-70
2022/05/14 10:30:15;;;;;;;15.98;5.07;;;23.30;54.40;;;;;;5015636;28;98662;-70
2022/05/14 10:32:45;;;;;;;12.60;5.18;;;23.40;54.20;;;;;;5014797;28;98563;-71
2022/05/14 10:35:25;;;;;;;15.55;5.18;;;23.70;53.80;;;;;;5015496;28;98629;-70
2022/05/14 10:38:14;;;;;;;13.68;4.47;;;24.10;53.40;;;;;;5015251;28;99461;-70
2022/05/14 10:40:43;;;;;;;12.82;4.18;;;24.40;49.90;;;;;;5016083;28;98923;-70
2022/05/14 10:43:38;;;;;;;13.10;4.18;;;24.40;50.10;;;;;;5013597;28;99252;-72
2022/05/14 10:46:10;;;;;;;18.13;5.85;;;24.60;50.00;;;;;;4997479;28;99373;-71
2022/05/14 10:48:58;;;;;;;16.27;5.20;;;24.70;50.00;;;;;;5015157;28;99017;-71
2022/05/14 10:51:32;;;;;;;13.90;5.15;;;25.00;49.20;;;;;;4997920;28;98583;-72
2022/05/14 10:54:00;;;;;;;14.55;4.72;;;25.00;48.10;;;;;;4997426;28;98607;-72
2022/05/14 10:56:34;;;;;;;13.48;5.57;;;25.20;49.10;;;;;;4997173;28;99107;-72
2022/05/14 10:59:09;;;;;;;14.60;5.40;;;25.30;49.20;;;;;;5013181;28;101100;-72
2022/05/14 11:01:54;;;;;;;16.35;4.80;;;25.20;49.10;;;;;;5015912;28;97812;-72
2022/05/14 11:04:36;;;;;;;15.80;4.82;;;25.00;49.60;;;;;;4997378;28;98507;-72
2022/05/14 11:07:06;;;;;;;15.25;4.90;;;24.70;49.20;;;;;;5014833;28;99575;-71
2022/05/14 11:09:38;;;;;;;14.35;4.80;;;24.50;49.50;;;;;;5014470;28;99272;-72
2022/05/14 11:12:09;;;;;;;15.10;4.53;;;24.50;50.00;;;;;;5014237;28;99096;-71
2022/05/14 11:14:49;;;;;;;13.82;4.63;;;24.40;50.30;;;;;;5014121;28;99001;-72
2022/05/14 11:17:31;;;;;;;17.20;5.13;;;24.70;49.60;;;;;;5014679;28;99254;-71
2022/05/14 11:20:04;;;;;;;17.85;5.18;;;24.70;48.60;;;;;;5013926;28;99414;-72
2022/05/14 11:22:33;;;;;;;15.63;5.47;;;24.60;49.90;;;;;;4997377;28;98537;-71
2022/05/14 11:25:19;;;;;;;11.93;4.18;;;24.60;50.20;;;;;;5012963;28;106707;-71
2022/05/14 11:28:18;;;;;;;14.18;4.95;;;24.60;49.20;;;;;;5015153;28;98494;-72
2022/05/14 11:30:54;;;;;;;15.38;4.18;;;24.60;49.20;;;;;;4980779;28;100430;-72
2022/05/14 11:33:27;;;;;;;12.93;4.32;;;24.70;49.90;;;;;;5013244;28;98620;-71
2022/05/14 11:35:56;;;;;;;15.85;5.40;;;24.50;49.10;;;;;;5014349;28;99319;-71
2022/05/14 11:38:23;;;;;;;17.73;5.22;;;24.50;49.70;;;;;;5012793;28;101799;-71
2022/05/14 11:41:07;;;;;;;18.15;4.68;;;24.30;49.70;;;;;;5013940;28;113556;-71
2022/05/14 11:43:41;;;;;;;12.93;4.78;;;24.40;50.00;;;;;;5015028;28;98488;-71
2022/05/14 11:46:31;;;;;;;18.67;5.95;;;24.10;49.70;;;;;;5013499;28;98513;-71
2022/05/14 11:49:26;;;;;;;13.77;5.35;;;24.20;50.50;;;;;;5014561;28;99117;-71
2022/05/14 11:52:11;;;;;;;14.85;4.55;;;24.30;50.60;;;;;;5012858;28;101764;-72
2022/05/14 11:54:56;;;;;;;15.70;5.28;;;24.40;50.50;;;;;;5015111;28;97727;-71
2022/05/14 11:57:32;;;;;;;14.52;5.18;;;24.70;49.80;;;;;;4996052;28;98520;-72
2022/05/14 12:00:06;;;;;;;15.65;5.55;;;24.90;50.30;;;;;;5014159;28;99344;-71
2022/05/14 12:02:47;;;;;;;14.35;4.55;;;25.10;48.40;;;;;;4995702;28;101545;-72
2022/05/14 12:05:45;;;;;;;14.80;5.13;;;25.50;48.00;;;;;;4995941;28;98535;-72
2022/05/14 12:08:37;;;;;;;15.35;5.03;;;25.70;47.20;;;;;;4995780;28;98595;-72
2022/05/14 12:11:56;;;;;;;16.48;5.65;;;25.50;47.00;;;;;;4995659;28;105016;-71
2022/05/14 12:14:34;;;;;;;14.75;4.75;;;25.30;48.20;;;;;;4958521;28;99060;-72
2022/05/14 12:17:06;;;;;;;16.63;6.45;;;25.00;49.00;;;;;;5013074;28;98689;-72
2022/05/14 12:19:39;;;;;;;14.70;4.30;;;24.70;49.20;;;;;;5013829;28;98404;-71
2022/05/14 12:22:15;;;;;;;14.82;4.40;;;24.50;50.00;;;;;;4979249;28;101585;-71
2022/05/14 12:24:57;;;;;;;16.80;5.20;;;24.20;50.20;;;;;;5013488;28;98423;-71
2022/05/14 12:27:26;;;;;;;18.13;5.00;;;24.10;50.90;;;;;;4979580;28;99022;-71
2022/05/14 12:30:01;;;;;;;12.60;5.57;;;24.10;51.30;;;;;;5013333;28;99250;-71
2022/05/14 12:35:30;;;;;;;14.18;5.00;;;24.30;51.50;;;;;;5013410;28;99434;-71
2022/05/14 12:38:00;;;;;;;14.90;4.50;;;24.20;51.40;;;;;;5013983;28;98989;-72
2022/05/14 12:40:35;;;;;;;12.50;4.47;;;24.40;50.20;;;;;;4995370;28;98592;-72
2022/05/14 12:43:06;;;;;;;17.52;5.55;;;24.50;50.10;;;;;;4995899;28;99169;-71
2022/05/14 12:45:36;;;;;;;15.95;5.47;;;24.60;49.20;;;;;;5011988;28;99068;-72
2022/05/14 12:48:04;;;;;;;13.68;5.60;;;24.90;48.70;;;;;;4995165;28;97945;-72
2022/05/14 12:50:36;;;;;;;12.70;5.73;;;25.30;48.10;;;;;;4996452;28;98603;-72
2022/05/14 12:53:06;;;;;;;15.70;5.13;;;25.60;47.50;;;;;;5013173;28;99353;-72
2022/05/14 12:55:40;;;;;;;15.00;5.45;;;25.70;47.70;;;;;;5012812;28;99210;-72
2022/05/14 12:58:07;;;;;;;14.73;5.15;;;25.90;47.60;;;;;;5013654;28;98440;-72
2022/05/14 13:00:37;;;;;;;12.77;4.78;;;25.80;46.60;;;;;;5013057;28;98916;-72
2022/05/14 13:03:31;;;;;;;15.77;4.30;;;25.80;45.70;;;;;;4995014;28;101878;-72
2022/05/14 13:06:03;;;;;;;15.35;5.32;;;25.60;44.90;;;;;;5013227;28;99085;-72
2022/05/14 13:08:31;;;;;;;10.88;4.78;;;25.20;46.50;;;;;;5013163;28;98579;-72
2022/05/14 13:11:04;;;;;;;14.50;4.60;;;25.10;46.60;;;;;;5012233;28;98678;-72
2022/05/14 13:13:39;;;;;;;10.70;4.50;;;25.30;46.00;;;;;;4978353;28;101217;-72
2022/05/14 13:16:15;;;;;;;15.48;6.25;;;25.40;46.60;;;;;;4995393;28;98606;-72
2022/05/14 13:18:46;;;;;;;14.43;5.05;;;25.60;45.30;;;;;;5013601;28;98505;-72
2022/05/14 13:21:44;;;;;;;14.35;5.97;;;25.70;44.80;;;;;;5012542;28;99468;-72
2022/05/14 13:24:25;;;;;;;12.82;5.10;;;25.70;44.40;;;;;;5013017;28;99379;-72
2022/05/14 13:26:55;;;;;;;11.05;4.13;;;25.50;45.40;;;;;;5012959;28;99174;-72